Time;durP1;ratioP1;P1;durP2;ratioP2;P2;SDS_P1;SDS_P2;PMS_P1;PMS_P2;Temp;Humidity;BMP_temperature;BMP_pressure;BME280_temperature;BME280_humidity;BME280_pressure;Samples;Min_cycle;Max_cycle;Signal;HPM_P1;HPM_P2
2022/03/31 00:00:09;;;;;;;19.42;12.00;;;;;;;;;;5014780;28;20040;-59
2022/03/31 00:02:35;;;;;;;21.48;12.27;;;;;;;;;;5019746;28;20097;-59
2022/03/31 00:05:01;;;;;;;25.27;12.32;;;;;;;;;;5013152;28;20113;-59
2022/03/31 00:07:27;;;;;;;21.88;12.40;;;;;;;;;;5017762;28;20025;-59
2022/03/31 00:09:53;;;;;;;19.27;11.15;;;;;;;;;;5008843;28;20022;-59
2022/03/31 00:12:19;;;;;;;18.40;11.48;;;;;;;;;;5013426;28;20034;-58
2022/03/31 00:14:45;;;;;;;17.42;11.32;;;;;;;;;;5023106;28;20148;-59
2022/03/31 00:17:11;;;;;;;23.80;12.35;;;;;;;;;;4999319;28;20088;-59
2022/03/31 00:19:37;;;;;;;23.40;13.05;;;;;;;;;;5015937;28;20029;-59
2022/03/31 00:22:03;;;;;;;19.02;11.70;;;;;;;;;;5012824;28;20022;-59
2022/03/31 00:24:29;;;;;;;19.73;12.10;;;;;;;;;;5021406;28;20030;-59
2022/03/31 00:26:55;;;;;;;19.58;11.10;;;;;;;;;;5022750;28;20029;-59
2022/03/31 00:29:22;;;;;;;17.60;11.20;;;;;;;;;;5025550;28;20076;-59
2022/03/31 00:31:48;;;;;;;20.08;11.45;;;;;;;;;;5018684;28;20029;-59
2022/03/31 00:34:14;;;;;;;15.80;10.48;;;;;;;;;;5013410;28;20025;-58
2022/03/31 00:36:40;;;;;;;16.30;10.77;;;;;;;;;;5001392;28;20025;-59
2022/03/31 00:41:52;;;;;;;20.77;10.80;;;;;;;;;;5015067;28;20076;-59
2022/03/31 00:44:18;;;;;;;18.58;11.10;;;;;;;;;;5016241;28;20076;-59
2022/03/31 00:46:49;;;;;;;16.52;10.55;;;;;;;;;;5021738;28;20379;-59
2022/03/31 00:49:15;;;;;;;14.77;10.50;;;;;;;;;;5018056;28;20105;-59
2022/03/31 00:51:42;;;;;;;18.75;10.40;;;;;;;;;;5016919;28;20462;-59
2022/03/31 00:54:08;;;;;;;18.35;10.75;;;;;;;;;;4999742;28;20058;-59
2022/03/31 00:56:34;;;;;;;19.67;10.13;;;;;;;;;;5014412;28;20042;-59
2022/03/31 00:59:00;;;;;;;17.52;10.68;;;;;;;;;;5014687;28;20658;-58
2022/03/31 01:01:26;;;;;;;15.32;10.68;;;;;;;;;;5016395;28;20033;-59
2022/03/31 01:03:52;;;;;;;17.23;10.05;;;;;;;;;;5019790;28;20044;-59
2022/03/31 01:06:18;;;;;;;20.95;10.23;;;;;;;;;;5020035;28;20389;-59
2022/03/31 01:08:44;;;;;;;19.73;10.68;;;;;;;;;;5020824;28;20656;-59
2022/03/31 01:11:10;;;;;;;16.75;9.95;;;;;;;;;;5015752;28;20018;-59
2022/03/31 01:13:36;;;;;;;18.40;10.75;;;;;;;;;;5016706;28;20033;-59
2022/03/31 01:16:02;;;;;;;19.10;10.52;;;;;;;;;;5019779;28;20018;-59
2022/03/31 01:18:28;;;;;;;18.33;9.55;;;;;;;;;;5024113;28;20030;-58
2022/03/31 01:20:54;;;;;;;21.25;9.98;;;;;;;;;;5006618;28;20473;-59
2022/03/31 01:23:21;;;;;;;18.95;10.32;;;;;;;;;;5024135;28;20524;-59
2022/03/31 01:25:47;;;;;;;17.40;10.85;;;;;;;;;;5014947;28;20041;-59
2022/03/31 01:28:13;;;;;;;16.20;11.63;;;;;;;;;;5019587;28;20630;-59
2022/03/31 01:30:39;;;;;;;16.73;10.60;;;;;;;;;;5016965;28;20033;-59
2022/03/31 01:33:05;;;;;;;21.98;10.55;;;;;;;;;;5017493;28;20529;-59
2022/03/31 01:35:31;;;;;;;16.30;9.98;;;;;;;;;;5015756;28;20034;-59
2022/03/31 01:37:57;;;;;;;18.83;12.32;;;;;;;;;;5019595;28;20394;-58
2022/03/31 01:40:23;;;;;;;20.55;10.25;;;;;;;;;;5022793;28;20025;-58
2022/03/31 01:42:49;;;;;;;18.15;11.25;;;;;;;;;;5013267;28;20014;-59
2022/03/31 01:45:18;;;;;;;18.75;11.18;;;;;;;;;;5018643;28;20032;-59
2022/03/31 01:47:44;;;;;;;18.90;11.15;;;;;;;;;;5023493;28;20152;-59
2022/03/31 01:50:11;;;;;;;18.48;10.82;;;;;;;;;;5018119;28;20069;-59
2022/03/31 01:52:37;;;;;;;15.55;10.68;;;;;;;;;;5013369;28;20030;-59
2022/03/31 01:55:04;;;;;;;18.83;10.90;;;;;;;;;;5017324;28;20400;-58
2022/03/31 01:57:30;;;;;;;17.77;10.93;;;;;;;;;;5017286;28;20112;-59
2022/03/31 01:59:56;;;;;;;19.98;11.07;;;;;;;;;;5021336;28;20111;-59
2022/03/31 02:02:22;;;;;;;19.80;11.80;;;;;;;;;;5016662;28;20408;-59
2022/03/31 02:04:48;;;;;;;21.98;11.75;;;;;;;;;;5022137;28;20014;-59
2022/03/31 02:07:14;;;;;;;20.05;12.02;;;;;;;;;;5017301;28;20052;-59
2022/03/31 02:09:41;;;;;;;18.70;11.27;;;;;;;;;;5021606;28;20500;-59
2022/03/31 02:12:08;;;;;;;18.55;11.13;;;;;;;;;;5010504;28;20941;-59
2022/03/31 02:14:37;;;;;;;17.15;11.30;;;;;;;;;;5021852;28;20052;-58
2022/03/31 02:17:05;;;;;;;18.30;10.88;;;;;;;;;;5001161;28;20028;-59
2022/03/31 02:19:31;;;;;;;19.70;11.63;;;;;;;;;;5028715;28;20067;-59
2022/03/31 02:21:57;;;;;;;19.48;11.48;;;;;;;;;;5011468;28;20547;-59
2022/03/31 02:24:23;;;;;;;21.23;11.57;;;;;;;;;;5018562;28;20034;-59
2022/03/31 02:26:49;;;;;;;18.52;11.65;;;;;;;;;;5021102;28;20024;-59
2022/03/31 02:29:15;;;;;;;17.83;11.82;;;;;;;;;;5011540;28;20030;-59
2022/03/31 02:31:41;;;;;;;21.25;11.98;;;;;;;;;;5009978;28;20034;-59
2022/03/31 02:34:07;;;;;;;17.88;11.05;;;;;;;;;;5018407;28;20691;-60
2022/03/31 02:36:33;;;;;;;18.67;11.05;;;;;;;;;;5005359;28;20690;-59
2022/03/31 02:38:59;;;;;;;18.90;11.93;;;;;;;;;;5013718;28;20029;-59
2022/03/31 02:41:26;;;;;;;20.80;12.32;;;;;;;;;;5015513;28;20025;-59
2022/03/31 02:43:52;;;;;;;19.98;11.55;;;;;;;;;;5010855;28;20469;-59
2022/03/31 02:46:19;;;;;;;23.98;11.45;;;;;;;;;;5018345;28;20037;-59
2022/03/31 02:48:45;;;;;;;20.48;12.20;;;;;;;;;;5018032;28;20028;-59
2022/03/31 02:51:11;;;;;;;20.73;11.88;;;;;;;;;;4998698;28;20021;-59
2022/03/31 02:56:21;;;;;;;17.48;11.48;;;;;;;;;;5014298;28;20044;-59
2022/03/31 02:58:47;;;;;;;18.13;11.18;;;;;;;;;;5014955;28;20473;-58
2022/03/31 03:01:14;;;;;;;23.88;11.75;;;;;;;;;;5018248;28;20021;-59
2022/03/31 03:03:40;;;;;;;20.35;11.95;;;;;;;;;;5015873;28;20477;-59
2022/03/31 03:06:07;;;;;;;23.70;12.13;;;;;;;;;;5016069;28;20030;-59
2022/03/31 03:08:33;;;;;;;21.35;12.57;;;;;;;;;;5015917;28;20473;-59
2022/03/31 03:11:00;;;;;;;18.02;12.20;;;;;;;;;;5020260;28;20128;-59
2022/03/31 03:13:26;;;;;;;21.13;12.48;;;;;;;;;;5019535;28;20131;-59
2022/03/31 03:15:54;;;;;;;19.63;12.25;;;;;;;;;;5022102;28;20248;-59
2022/03/31 03:18:20;;;;;;;20.77;12.68;;;;;;;;;;5023397;28;20044;-59
2022/03/31 03:20:46;;;;;;;24.02;12.98;;;;;;;;;;5016652;28;20473;-59
2022/03/31 03:23:12;;;;;;;26.13;13.18;;;;;;;;;;5011957;28;20397;-59
2022/03/31 03:25:38;;;;;;;21.50;12.43;;;;;;;;;;5014828;28;20026;-59
2022/03/31 03:28:04;;;;;;;17.85;12.52;;;;;;;;;;5014906;28;20388;-59
2022/03/31 03:30:30;;;;;;;21.50;12.52;;;;;;;;;;5015300;28;20120;-58
2022/03/31 03:32:56;;;;;;;18.50;12.60;;;;;;;;;;5017302;28;20112;-59
2022/03/31 03:35:22;;;;;;;25.15;12.88;;;;;;;;;;5014079;28;20400;-59
2022/03/31 03:37:48;;;;;;;23.20;13.75;;;;;;;;;;5012458;28;20445;-59
2022/03/31 03:40:15;;;;;;;25.52;13.07;;;;;;;;;;5011777;28;20135;-59
2022/03/31 03:42:41;;;;;;;22.27;12.82;;;;;;;;;;5019857;28;20057;-59
2022/03/31 03:45:10;;;;;;;22.25;13.80;;;;;;;;;;5014483;28;20030;-59
2022/03/31 03:47:36;;;;;;;22.10;13.75;;;;;;;;;;5013433;28;20065;-58
2022/03/31 03:50:02;;;;;;;21.98;13.90;;;;;;;;;;5017405;28;20426;-59
2022/03/31 03:52:28;;;;;;;23.65;14.55;;;;;;;;;;5023519;28;20053;-59
2022/03/31 03:54:54;;;;;;;25.30;14.43;;;;;;;;;;5020295;28;20029;-59
2022/03/31 03:57:22;;;;;;;25.33;15.55;;;;;;;;;;5025321;28;20041;-57
2022/03/31 03:59:48;;;;;;;19.17;13.45;;;;;;;;;;5024132;28;20053;-59
2022/03/31 04:02:14;;;;;;;26.27;14.77;;;;;;;;;;5023755;28;20053;-59
2022/03/31 04:04:40;;;;;;;23.73;14.90;;;;;;;;;;5017933;28;20072;-59
2022/03/31 04:07:06;;;;;;;23.70;15.38;;;;;;;;;;5018187;28;20445;-59
2022/03/31 04:09:32;;;;;;;24.42;14.55;;;;;;;;;;5015475;28;20034;-59
2022/03/31 04:11:58;;;;;;;23.75;14.88;;;;;;;;;;5021450;28;20025;-59
2022/03/31 04:14:24;;;;;;;24.30;15.55;;;;;;;;;;5019266;28;20115;-59
2022/03/31 04:16:50;;;;;;;25.45;15.93;;;;;;;;;;5014459;28;20034;-59
2022/03/31 04:19:16;;;;;;;27.60;16.48;;;;;;;;;;5019625;28;20506;-59
2022/03/31 04:21:42;;;;;;;30.00;16.27;;;;;;;;;;5021709;28;20030;-58
2022/03/31 04:24:08;;;;;;;23.73;15.32;;;;;;;;;;5021193;28;20539;-59
2022/03/31 04:26:35;;;;;;;28.52;16.27;;;;;;;;;;5024527;28;20022;-59
2022/03/31 04:29:01;;;;;;;28.73;17.23;;;;;;;;;;5019488;28;20034;-59
2022/03/31 04:31:28;;;;;;;32.70;17.13;;;;;;;;;;5022219;28;20484;-59
2022/03/31 04:33:54;;;;;;;27.80;16.63;;;;;;;;;;5019634;28;20018;-57
2022/03/31 04:36:20;;;;;;;28.27;16.25;;;;;;;;;;5017157;28;20393;-59
2022/03/31 04:38:46;;;;;;;30.27;17.45;;;;;;;;;;5022193;28;20085;-58
2022/03/31 04:41:13;;;;;;;28.02;17.30;;;;;;;;;;5022273;28;20489;-58
2022/03/31 04:43:39;;;;;;;26.15;17.13;;;;;;;;;;5019290;28;20026;-59
2022/03/31 04:46:05;;;;;;;29.85;17.00;;;;;;;;;;5020983;28;20079;-58
2022/03/31 04:48:33;;;;;;;33.85;18.25;;;;;;;;;;5019979;28;20029;-59
2022/03/31 04:50:59;;;;;;;30.15;18.77;;;;;;;;;;5017289;28;20033;-59
2022/03/31 04:53:25;;;;;;;26.42;17.50;;;;;;;;;;5014766;28;20030;-59
2022/03/31 04:55:51;;;;;;;32.38;18.13;;;;;;;;;;5013820;28;20037;-58
2022/03/31 04:58:17;;;;;;;29.05;17.40;;;;;;;;;;5016944;28;20036;-59
2022/03/31 05:00:43;;;;;;;31.13;17.80;;;;;;;;;;5018545;28;20402;-59
2022/03/31 05:03:09;;;;;;;30.33;18.38;;;;;;;;;;5016334;28;20029;-59
2022/03/31 05:05:35;;;;;;;30.20;19.23;;;;;;;;;;5015965;28;20022;-59
2022/03/31 05:08:02;;;;;;;29.15;17.75;;;;;;;;;;5018736;28;20025;-58
2022/03/31 05:10:28;;;;;;;30.25;19.25;;;;;;;;;;5014231;28;20036;-59
2022/03/31 05:12:54;;;;;;;30.17;17.80;;;;;;;;;;5007694;28;20025;-59
2022/03/31 05:15:20;;;;;;;32.10;20.25;;;;;;;;;;5013877;28;20041;-59
2022/03/31 05:17:46;;;;;;;29.30;18.85;;;;;;;;;;5016605;28;20112;-58
2022/03/31 05:20:12;;;;;;;34.58;20.33;;;;;;;;;;5015887;28;20112;-59
2022/03/31 05:22:39;;;;;;;35.63;20.63;;;;;;;;;;4999499;28;20092;-59
2022/03/31 05:25:09;;;;;;;31.63;19.80;;;;;;;;;;5015554;28;20472;-60
2022/03/31 05:27:45;;;;;;;32.30;20.05;;;;;;;;;;5016994;28;20083;-60
2022/03/31 05:30:12;;;;;;;33.42;19.40;;;;;;;;;;5017466;28;20702;-59
2022/03/31 05:32:38;;;;;;;33.97;21.00;;;;;;;;;;5018223;28;20655;-58
2022/03/31 05:35:06;;;;;;;33.05;20.45;;;;;;;;;;5014514;28;20037;-60
2022/03/31 05:37:33;;;;;;;32.72;20.42;;;;;;;;;;5016579;28;20030;-59
2022/03/31 05:40:01;;;;;;;37.13;21.15;;;;;;;;;;5014331;28;20026;-62
2022/03/31 05:42:27;;;;;;;55.65;33.80;;;;;;;;;;5009628;28;20030;-61
2022/03/31 05:44:53;;;;;;;34.22;20.90;;;;;;;;;;5018874;28;20033;-61
2022/03/31 05:47:19;;;;;;;35.00;21.70;;;;;;;;;;5018669;28;20029;-59
2022/03/31 05:49:45;;;;;;;33.45;22.33;;;;;;;;;;5021766;28;20044;-61
2022/03/31 05:52:11;;;;;;;35.38;21.77;;;;;;;;;;5015940;28;20030;-61
2022/03/31 05:54:37;;;;;;;37.28;22.08;;;;;;;;;;5017457;28;20036;-61
2022/03/31 05:57:03;;;;;;;35.20;22.50;;;;;;;;;;5016162;28;20037;-61
2022/03/31 05:59:29;;;;;;;36.33;22.38;;;;;;;;;;5019216;28;20034;-61
2022/03/31 06:01:55;;;;;;;37.60;24.25;;;;;;;;;;5015298;28;20022;-60
2022/03/31 06:04:21;;;;;;;40.00;24.75;;;;;;;;;;5014940;28;20366;-60
2022/03/31 06:06:50;;;;;;;37.75;24.17;;;;;;;;;;5015429;28;20105;-60
2022/03/31 06:09:16;;;;;;;44.35;24.67;;;;;;;;;;5017743;28;20053;-61
2022/03/31 06:11:44;;;;;;;41.20;25.40;;;;;;;;;;5016016;28;20084;-61
2022/03/31 06:14:11;;;;;;;39.70;25.30;;;;;;;;;;4998170;28;20040;-60
2022/03/31 06:16:37;;;;;;;39.90;25.55;;;;;;;;;;5021512;28;20029;-60
2022/03/31 06:19:03;;;;;;;38.25;26.13;;;;;;;;;;5004264;28;20059;-60
2022/03/31 06:21:29;;;;;;;42.97;25.73;;;;;;;;;;5014191;28;20033;-61
2022/03/31 06:23:56;;;;;;;45.83;26.92;;;;;;;;;;5017320;28;20022;-61
2022/03/31 06:26:22;;;;;;;48.28;27.30;;;;;;;;;;5000082;28;20128;-62
2022/03/31 06:28:49;;;;;;;49.13;28.73;;;;;;;;;;5015077;28;20172;-61
2022/03/31 06:31:15;;;;;;;46.85;27.40;;;;;;;;;;5017691;28;20026;-61
2022/03/31 06:33:41;;;;;;;48.45;28.15;;;;;;;;;;5019076;28;20053;-61
2022/03/31 06:36:08;;;;;;;46.55;28.10;;;;;;;;;;5022051;28;20189;-61
2022/03/31 06:38:34;;;;;;;50.42;28.17;;;;;;;;;;5020251;28;20066;-61
2022/03/31 06:41:14;;;;;;;43.60;27.70;;;5.50;99.90;;;;;;5015297;28;20394;-62
2022/03/31 06:43:41;;;;;;;49.40;29.25;;;5.40;99.90;;;;;;5016667;28;20112;-63
2022/03/31 06:46:07;;;;;;;50.05;30.10;;;;;;;;;;5015730;28;20029;-63
2022/03/31 06:48:35;;;;;;;49.55;29.15;;;;;;;;;;5000618;28;20041;-63
2022/03/31 06:51:02;;;;;;;50.45;28.55;;;;;;;;;;5013468;28;20091;-62
2022/03/31 06:53:28;;;;;;;53.25;29.45;;;;;;;;;;5017423;28;20044;-63
2022/03/31 06:55:54;;;;;;;57.13;31.63;;;;;;;;;;4996771;28;20029;-62
2022/03/31 06:58:25;;;;;;;50.13;30.02;;;5.50;99.90;;;;;;5017941;28;20072;-63
2022/03/31 07:00:51;;;;;;;55.63;30.73;;;5.20;99.90;;;;;;5015904;28;20037;-63
2022/03/31 07:03:17;;;;;;;51.65;30.40;;;6.00;99.90;;;;;;5015691;28;20143;-63
2022/03/31 07:05:45;;;;;;;57.88;30.05;;;5.80;99.90;;;;;;5014788;28;20176;-64
2022/03/31 07:08:10;;;;;;;55.03;30.88;;;5.90;99.90;;;;;;5003074;28;20021;-63
2022/03/31 07:10:36;;;;;;;53.78;31.02;;;5.90;99.90;;;;;;5015820;28;20039;-63
2022/03/31 07:13:02;;;;;;;54.72;31.35;;;6.00;99.90;;;;;;5013097;28;20026;-63
2022/03/31 07:15:28;;;;;;;54.60;30.90;;;5.90;99.90;;;;;;5019655;28;20052;-62
2022/03/31 07:17:55;;;;;;;53.80;30.70;;;5.70;99.90;;;;;;4995609;28;20025;-62
2022/03/31 07:20:22;;;;;;;53.65;30.23;;;5.60;99.90;;;;;;5017844;28;20052;-62
2022/03/31 07:22:48;;;;;;;53.53;31.80;;;5.50;99.90;;;;;;5016224;28;20583;-61
2022/03/31 07:25:16;;;;;;;60.00;33.17;;;5.80;99.90;;;;;;5014104;28;20528;-62
2022/03/31 07:27:42;;;;;;;58.38;32.85;;;5.80;99.90;;;;;;5008663;28;20046;-62
2022/03/31 07:30:07;;;;;;;57.05;32.88;;;6.00;99.90;;;;;;5001260;28;20072;-61
2022/03/31 07:32:33;;;;;;;59.40;33.95;;;5.80;99.90;;;;;;5010646;28;20065;-62
2022/03/31 07:35:00;;;;;;;62.53;34.65;;;5.80;99.90;;;;;;5012923;28;20575;-62
2022/03/31 07:37:26;;;;;;;62.75;34.83;;;;;;;;;;5014479;28;20461;-62
2022/03/31 07:39:51;;;;;;;59.05;34.33;;;5.70;99.90;;;;;;5016171;28;20075;-62
2022/03/31 07:42:17;;;;;;;60.33;34.35;;;6.20;99.90;;;;;;5017399;28;20653;-62
2022/03/31 07:44:43;;;;;;;57.47;34.88;;;;;;;;;;5013596;28;20155;-62
2022/03/31 07:47:09;;;;;;;60.05;34.60;;;;;;;;;;5015751;28;20029;-61
2022/03/31 07:49:35;;;;;;;61.03;35.80;;;5.80;99.90;;;;;;5019053;28;20032;-63
2022/03/31 07:52:02;;;;;;;66.10;36.80;;;5.80;99.90;;;;;;5014894;28;20026;-61
2022/03/31 07:54:27;;;;;;;72.43;39.47;;;5.70;99.90;;;;;;5019721;28;20116;-59
2022/03/31 07:56:53;;;;;;;80.45;41.17;;;5.70;99.90;;;;;;5020768;28;20706;-62
2022/03/31 07:59:23;;;;;;;73.70;40.53;;;5.60;99.90;;;;;;5013994;28;20068;-62
2022/03/31 08:01:49;;;;;;;77.32;41.72;;;5.50;99.90;;;;;;5014371;28;20010;-62
2022/03/31 08:04:16;;;;;;;81.75;44.95;;;5.50;99.90;;;;;;5016492;28;20039;-62
2022/03/31 08:06:43;;;;;;;84.60;46.40;;;5.50;99.90;;;;;;5019786;28;20083;-62
2022/03/31 08:09:10;;;;;;;79.28;46.15;;;5.60;99.90;;;;;;5013745;28;20029;-62
2022/03/31 08:11:36;;;;;;;81.88;47.67;;;;;;;;;;5018491;28;20529;-62
2022/03/31 08:14:02;;;;;;;83.15;46.50;;;;;;;;;;5009938;28;20469;-62
2022/03/31 08:16:28;;;;;;;88.43;47.90;;;5.80;99.90;;;;;;5015660;28;20116;-62
2022/03/31 08:18:54;;;;;;;75.65;44.53;;;5.80;99.90;;;;;;5016592;28;20124;-62
2022/03/31 08:21:20;;;;;;;78.80;43.75;;;5.70;99.90;;;;;;5014482;28;20030;-62
2022/03/31 08:23:46;;;;;;;80.85;45.40;;;;;;;;;;5015661;28;20032;-62
2022/03/31 08:26:12;;;;;;;84.15;47.63;;;;;;;;;;5016016;28;20117;-62
2022/03/31 08:28:38;;;;;;;83.88;46.70;;;;;;;;;;5014929;28;20037;-61
2022/03/31 08:31:04;;;;;;;88.30;46.30;;;;;;;;;;5019260;28;20100;-62
2022/03/31 08:33:30;;;;;;;95.57;46.25;;;;;;;;;;5017688;28;20045;-63
2022/03/31 08:35:56;;;;;;;94.97;47.60;;;;;;;;;;5019649;28;20040;-63
2022/03/31 08:38:22;;;;;;;97.95;48.75;;;;;;;;;;5004048;28;20041;-63
2022/03/31 08:40:48;;;;;;;88.32;47.10;;;;;;;;;;5022172;28;20025;-62
2022/03/31 08:43:14;;;;;;;86.90;47.63;;;;;;;;;;5006580;28;20036;-63
2022/03/31 08:45:41;;;;;;;94.45;50.05;;;;;;;;;;5023429;28;20488;-62
2022/03/31 08:48:08;;;;;;;97.97;49.17;;;;;;;;;;5018016;28;20029;-63
2022/03/31 08:50:35;;;;;;;88.60;48.30;;;;;;;;;;5018532;28;20195;-63
2022/03/31 08:53:01;;;;;;;93.85;48.08;;;;;;;;;;5001250;28;20021;-62
2022/03/31 08:55:27;;;;;;;84.75;48.05;;;;;;;;;;5024297;28;20148;-63
2022/03/31 08:57:56;;;;;;;86.57;45.80;;;;;;;;;;5020742;28;20765;-63
2022/03/31 09:00:22;;;;;;;92.47;48.58;;;;;;;;;;5025273;28;20045;-62
2022/03/31 09:02:56;;;;;;;93.45;47.90;;;;;;;;;;5018828;28;20369;-62
2022/03/31 09:05:22;;;;;;;98.10;50.78;;;;;;;;;;5023262;28;20034;-61
2022/03/31 09:07:55;;;;;;;92.85;49.15;;;;;;;;;;5015180;28;20037;-62
2022/03/31 09:10:31;;;;;;;96.68;50.95;;;;;;;;;;5018140;28;20132;-61
2022/03/31 09:12:57;;;;;;;101.47;51.90;;;;;;;;;;5020097;28;20458;-62
2022/03/31 09:15:23;;;;;;;106.28;52.75;;;;;;;;;;5014561;28;20026;-61
2022/03/31 09:17:56;;;;;;;100.30;51.70;;;;;;;;;;5015570;28;21003;-62
2022/03/31 09:20:22;;;;;;;104.68;52.97;;;;;;;;;;5002990;28;20033;-62
2022/03/31 09:22:50;;;;;;;99.55;51.50;;;;;;;;;;5021352;28;20026;-62
2022/03/31 09:25:28;;;;;;;98.75;50.80;;;;;;;;;;5018877;28;20124;-62
2022/03/31 09:27:56;;;;;;;93.25;49.13;;;;;;;;;;5012934;28;20026;-62
2022/03/31 09:30:24;;;;;;;91.32;48.30;;;;;;;;;;5021267;28;20435;-61
2022/03/31 09:32:51;;;;;;;95.10;49.55;;;;;;;;;;5020575;28;20082;-62
2022/03/31 09:35:20;;;;;;;91.05;49.42;;;;;;;;;;5020657;28;20026;-62
2022/03/31 09:37:49;;;;;;;94.63;51.38;;;;;;;;;;5014484;28;20038;-62
2022/03/31 09:40:15;;;;;;;83.78;48.08;;;;;;;;;;5015735;28;20025;-62
2022/03/31 09:42:41;;;;;;;84.18;46.78;;;;;;;;;;5025142;28;20036;-62
2022/03/31 09:45:08;;;;;;;83.72;45.53;;;;;;;;;;5015001;28;20341;-61
2022/03/31 09:47:43;;;;;;;77.00;44.17;;;;;;;;;;5012747;28;20025;-62
2022/03/31 09:50:09;;;;;;;78.00;46.03;;;;;;;;;;5015605;28;20235;-62
2022/03/31 09:52:37;;;;;;;77.25;43.67;;;;;;;;;;5017457;28;20026;-60
2022/03/31 09:55:04;;;;;;;85.85;45.03;;;;;;;;;;5015007;28;20077;-62
2022/03/31 09:57:31;;;;;;;79.97;42.08;;;;;;;;;;5013792;28;20026;-63
2022/03/31 09:59:57;;;;;;;80.53;45.28;;;;;;;;;;5018137;28;20037;-61
2022/03/31 10:02:23;;;;;;;76.65;44.38;;;;;;;;;;4997487;28;20033;-61
2022/03/31 10:04:50;;;;;;;70.95;42.95;;;;;;;;;;5019461;28;20439;-60
2022/03/31 10:07:16;;;;;;;72.50;43.28;;;;;;;;;;5018620;28;20390;-62
2022/03/31 10:09:43;;;;;;;80.55;44.00;;;;;;;;;;5016127;28;20040;-62
2022/03/31 10:12:28;;;;;;;76.32;42.15;;;;;;;;;;5011250;28;20050;-62
2022/03/31 10:14:59;;;;;;;80.47;42.88;;;;;;;;;;5010659;28;20038;-62
2022/03/31 10:17:27;;;;;;;77.93;44.40;;;;;;;;;;5018214;28;20037;-62
2022/03/31 10:19:53;;;;;;;73.78;40.70;;;;;;;;;;5019400;28;20029;-61
2022/03/31 10:25:07;;;;;;;74.65;42.97;;;;;;;;;;5017192;28;20503;-61
2022/03/31 10:27:35;;;;;;;71.65;39.53;;;;;;;;;;5023226;28;20481;-62
2022/03/31 10:30:21;;;;;;;73.22;40.95;;;;;;;;;;5016006;28;20025;-62
2022/03/31 10:32:51;;;;;;;72.10;40.75;;;;;;;;;;4995767;28;20102;-62
2022/03/31 10:35:24;;;;;;;76.63;42.58;;;;;;;;;;5006087;28;20034;-62
2022/03/31 10:37:50;;;;;;;75.45;42.90;;;;;;;;;;5017407;28;20022;-64
2022/03/31 10:40:27;;;;;;;84.03;44.47;;;;;;;;;;5015336;28;20531;-63
2022/03/31 10:42:56;;;;;;;84.70;47.45;;;;;;;;;;5017845;28;20029;-63
2022/03/31 10:45:32;;;;;;;81.35;46.70;;;;;;;;;;5016620;28;20696;-64
2022/03/31 10:47:58;;;;;;;76.55;45.60;;;;;;;;;;5012711;28;20488;-63
2022/03/31 10:50:28;;;;;;;83.63;45.28;;;;;;;;;;5016476;28;20055;-63
2022/03/31 10:53:03;;;;;;;88.10;47.20;;;;;;;;;;5003096;28;20025;-63
2022/03/31 10:55:55;;;;;;;80.90;46.53;;;;;;;;;;5019378;28;20033;-63
2022/03/31 10:58:25;;;;;;;73.10;42.95;;;;;;;;;;5011936;28;20068;-65
2022/03/31 11:00:52;;;;;;;75.28;41.50;;;;;;;;;;5020318;28;20071;-64
2022/03/31 11:03:18;;;;;;;78.55;43.97;;;;;;;;;;5011787;28;20029;-65
2022/03/31 11:05:44;;;;;;;81.50;44.97;;;;;;;;;;5010950;28;20888;-63
2022/03/31 11:08:16;;;;;;;81.35;43.97;;;;;;;;;;5012744;28;20494;-64
2022/03/31 11:10:43;;;;;;;75.38;44.42;;;;;;;;;;5018221;28;20436;-64
2022/03/31 11:13:09;;;;;;;64.53;35.58;;;;;;;;;;5015054;28;20037;-63
2022/03/31 11:15:35;;;;;;;49.42;30.95;;;;;;;;;;5021167;28;20322;-65
2022/03/31 11:18:01;;;;;;;47.42;30.17;;;;;;;;;;5016984;28;20038;-64
2022/03/31 11:20:28;;;;;;;43.90;28.23;;;;;;;;;;5017319;28;20022;-63
2022/03/31 11:22:55;;;;;;;43.53;29.40;;;;;;;;;;5015378;28;20112;-64
2022/03/31 11:25:22;;;;;;;41.03;24.65;;;;;;;;;;5015632;28;20026;-63
2022/03/31 11:27:49;;;;;;;41.05;26.60;;;;;;;;;;5015598;28;20068;-63
2022/03/31 11:30:18;;;;;;;38.45;24.88;;;;;;;;;;5015855;28;20021;-64
2022/03/31 11:32:44;;;;;;;42.00;24.85;;;;;;;;;;5011876;28;20485;-64
2022/03/31 11:35:14;;;;;;;39.50;24.67;;;;;;;;;;5011413;28;20271;-64
2022/03/31 11:37:57;;;;;;;34.63;24.02;;;;;;;;;;5016610;28;20121;-64
2022/03/31 11:40:23;;;;;;;36.80;22.65;;;;;;;;;;5010568;28;20291;-63
2022/03/31 11:42:50;;;;;;;39.58;24.77;;;;;;;;;;5018335;28;20025;-63
2022/03/31 11:45:43;;;;;;;38.42;24.40;;;;;;;;;;5019574;28;20155;-63
2022/03/31 11:48:11;;;;;;;35.30;24.30;;;;;;;;;;5008629;28;20392;-64
2022/03/31 11:50:38;;;;;;;39.00;24.27;;;;;;;;;;5016412;28;20072;-63
2022/03/31 11:53:15;;;;;;;36.50;23.73;;;;;;;;;;5014578;28;20179;-64
2022/03/31 11:55:41;;;;;;;35.08;23.48;;;;;;;;;;5013734;28;20064;-64
2022/03/31 11:58:08;;;;;;;37.78;24.60;;;;;;;;;;5013807;28;20112;-63
2022/03/31 12:00:34;;;;;;;43.22;26.42;;;;;;;;;;5019637;28;20052;-64
2022/03/31 12:03:05;;;;;;;37.25;23.58;;;;;;;;;;5016094;28;20037;-63
2022/03/31 12:05:32;;;;;;;33.92;23.05;;;;;;;;;;5014117;28;20018;-63
2022/03/31 12:08:00;;;;;;;33.40;21.50;;;;;;;;;;5016397;28;20481;-64
2022/03/31 12:10:26;;;;;;;31.42;20.33;;;;;;;;;;5018276;28;20105;-63
2022/03/31 12:12:54;;;;;;;26.15;19.08;;;;;;;;;;5020609;28;20375;-63
2022/03/31 12:15:21;;;;;;;26.08;18.52;;;;;;;;;;5018188;28;20061;-63
2022/03/31 12:18:16;;;;;;;24.15;16.80;;;;;;;;;;5017772;28;20025;-63
2022/03/31 12:20:43;;;;;;;24.83;17.30;;;;;;;;;;4996451;28;20029;-63
2022/03/31 12:23:20;;;;;;;21.95;14.65;;;;;;;;;;5020507;28;20021;-63
2022/03/31 12:25:46;;;;;;;20.77;14.63;;;5.80;99.90;;;;;;5001168;28;20203;-64
2022/03/31 12:28:11;;;;;;;21.55;15.88;;;5.70;99.90;;;;;;5021699;28;20165;-63
2022/03/31 12:30:41;;;;;;;21.25;15.80;;;5.60;99.90;;;;;;5017027;28;20061;-64
2022/03/31 12:33:26;;;;;;;21.23;15.93;;;5.80;99.90;;;;;;5020194;28;20038;-63
2022/03/31 12:35:57;;;;;;;22.33;15.55;;;5.80;99.90;;;;;;5004085;28;20140;-63
2022/03/31 12:38:49;;;;;;;21.80;15.13;;;5.70;99.90;;;;;;5020546;28;20080;-63
2022/03/31 12:41:33;;;;;;;22.45;15.95;;;5.70;99.90;;;;;;5019142;28;20038;-64
2022/03/31 12:44:05;;;;;;;21.73;16.10;;;5.70;99.90;;;;;;5021831;28;20056;-64
2022/03/31 12:46:34;;;;;;;22.63;15.80;;;;;;;;;;5020944;28;20029;-64
2022/03/31 12:49:08;;;;;;;22.63;16.42;;;;;;;;;;5014887;28;20017;-63
2022/03/31 12:51:41;;;;;;;22.33;15.82;;;;;;;;;;5023448;28;20052;-63
2022/03/31 12:54:09;;;;;;;;;;;;;;;;;;5004776;28;20032;-63
2022/03/31 12:56:35;;;;;;;20.83;15.90;;;;;;;;;;5016458;28;19999;-59
2022/03/31 12:59:00;;;;;;;21.02;15.35;;;5.60;99.90;;;;;;5021354;28;20152;-60
2022/03/31 13:01:26;;;;;;;23.90;14.60;;;5.90;99.90;;;;;;5021878;28;20040;-60
2022/03/31 13:03:53;;;;;;;22.13;16.58;;;5.60;99.90;;;;;;5006019;28;20029;-59
2022/03/31 13:06:19;;;;;;;22.00;16.20;;;5.80;99.90;;;;;;5021270;28;20097;-59
2022/03/31 13:08:45;;;;;;;22.38;16.08;;;5.70;99.90;;;;;;5001525;28;20112;-60
2022/03/31 13:11:11;;;;;;;22.33;16.55;;;6.10;99.90;;;;;;5019089;28;20049;-61
2022/03/31 13:13:39;;;;;;;21.08;14.93;;;;;;;;;;5019873;28;20032;-60
2022/03/31 13:16:05;;;;;;;21.25;15.65;;;;;;;;;;5022114;28;20025;-61
2022/03/31 13:18:32;;;;;;;19.60;14.82;;;;;;;;;;5020533;28;20026;-61
2022/03/31 13:20:58;;;;;;;20.73;15.43;;;;;;;;;;5018584;28;20469;-60
2022/03/31 13:23:24;;;;;;;18.30;13.50;;;5.80;99.90;;;;;;5001274;28;20100;-62
2022/03/31 13:25:50;;;;;;;17.77;13.90;;;;;;;;;;5018633;28;20068;-60
2022/03/31 13:28:17;;;;;;;17.00;13.32;;;;;;;;;;5023661;28;20025;-59
2022/03/31 13:30:43;;;;;;;19.05;13.68;;;5.50;99.90;;;;;;5003809;28;20227;-60
2022/03/31 13:33:08;;;;;;;17.73;12.48;;;5.70;99.90;;;;;;5019894;28;20029;-60
2022/03/31 13:35:34;;;;;;;16.48;12.60;;;5.40;99.90;;;;;;5003007;28;20033;-60
2022/03/31 13:38:00;;;;;;;16.40;12.65;;;5.50;99.90;;;;;;5000473;28;20121;-59
2022/03/31 13:40:25;;;;;;;19.17;13.52;;;5.50;99.90;;;;;;5005417;28;20451;-59
2022/03/31 13:42:51;;;;;;;19.92;14.02;;;5.60;99.90;;;;;;5016092;28;20049;-60
2022/03/31 13:45:17;;;;;;;16.30;12.90;;;5.70;99.90;;;;;;5016904;28;20032;-60
2022/03/31 13:47:46;;;;;;;14.02;11.60;;;5.60;99.90;;;;;;5024200;28;20049;-59
2022/03/31 13:50:14;;;;;;;15.25;11.98;;;5.50;99.90;;;;;;4999300;28;20094;-61
2022/03/31 13:52:39;;;;;;;13.60;11.73;;;5.60;99.90;;;;;;5019647;28;20030;-60
2022/03/31 13:55:06;;;;;;;15.77;11.68;;;5.60;99.90;;;;;;5021129;28;20501;-60
2022/03/31 14:03:01;;;;;;;13.98;10.70;;;5.40;99.90;;;;;;5019704;28;20043;-60
2022/03/31 14:05:26;;;;;;;13.65;10.15;;;5.50;99.90;;;;;;5022129;28;20148;-60
2022/03/31 14:07:53;;;;;;;12.98;10.88;;;5.40;99.90;;;;;;5014412;28;20120;-59
2022/03/31 14:10:19;;;;;;;16.10;12.13;;;5.30;99.90;;;;;;5018195;28;20428;-60